Big D — ZDDR2 — position and weather

sailwx.info

Track history (hours):
 
Tides and Currents Weather Stations Pressure Air Temp Water Temp Dewpoint Dewpoint Depression Visibility Wind Speed Wind Dir Waves Ship Positions

Big D

Last reported at 2017-Jun-20 14:33 UTC. Time now 2017-Jun-28 17:33 UTC.
Position N 43°10' E 016°26'.
Warning: this ship's position is 8 days out of date.

Length 45 m; draft 2.6 m.

Type: Pleasure craft. MMSI: 236052000.

Date/timePositionNaut miles runAvg speedWind from/ knotsBaromVisibWave heightAir tempDewpointWater temp
2017-Jun-20 14:33N 43°10' E 016°26'0 0.3
2017-Jun-20 14:21N 43°10' E 016°26'  
2017-Jun-16 22:20N 44°31' E 014°12'310.8
2017-Jun-16 22:01N 44°33' E 014°08'611.6
2017-Jun-16 21:31N 44°37' E 014°02'611.6
2017-Jun-16 21:00N 44°41' E 013°56'611.7
2017-Jun-16 20:31N 44°45' E 013°51'611.9
2017-Jun-16 20:00N 44°51' E 013°47'4 7.3
2017-Jun-16 19:23N 44°55' E 013°46'0 0.0
2017-Jun-16 17:58N 44°55' E 013°46'5 0.7
2017-Jun-16 10:33N 44°59' E 013°41'010.6
2017-Jun-16 10:30N 44°59' E 013°41'5 9.9
2017-Jun-16 10:00N 45°03' E 013°37'2 0.2
2017-Jun-16 01:08N 45°05' E 013°38'0 0.0
2017-Jun-15 23:29N 45°05' E 013°38'0 0.0
2017-Jun-15 22:08N 45°05' E 013°38'0 0.0
2017-Jun-15 21:41N 45°05' E 013°38'0 0.0
2017-Jun-15 16:49N 45°05' E 013°38'1 0.2
2017-Jun-15 12:40N 45°06' E 013°38'0 0.0
2017-Jun-15 12:28N 45°06' E 013°38'0 0.0
2017-Jun-15 09:16N 45°06' E 013°38'0 0.0
2017-Jun-15 08:01N 45°06' E 013°38'0 0.0
2017-Jun-15 07:52N 45°06' E 013°38'0 0.0
2017-Jun-15 07:28N 45°06' E 013°38'0 0.0
2017-Jun-15 06:40N 45°06' E 013°38'0 0.0
2017-Jun-15 06:28N 45°06' E 013°38'0 0.0
2017-Jun-15 05:58N 45°06' E 013°38'0 0.0
2017-Jun-15 05:25N 45°06' E 013°38'0 0.0
2017-Jun-15 04:43N 45°06' E 013°38'0 0.0
2017-Jun-15 04:16N 45°06' E 013°38'0 0.0
2017-Jun-15 03:55N 45°06' E 013°38'0 0.0
2017-Jun-15 03:10N 45°06' E 013°38'0 0.0
2017-Jun-15 02:55N 45°06' E 013°38'0 0.0
2017-Jun-15 02:28N 45°06' E 013°38'0 0.0
2017-Jun-15 01:58N 45°06' E 013°38'0 0.0
2017-Jun-15 01:28N 45°06' E 013°38'0 0.0
2017-Jun-15 00:52N 45°06' E 013°38'0 0.0
2017-Jun-15 00:28N 45°06' E 013°38'0 0.0
2017-Jun-14 23:49N 45°06' E 013°38'0 0.0
2017-Jun-14 23:25N 45°06' E 013°38'0 0.0
2017-Jun-14 22:55N 45°06' E 013°38'0 0.0
2017-Jun-14 22:28N 45°06' E 013°38'0 0.0
2017-Jun-14 21:58N 45°06' E 013°38'0 0.0
2017-Jun-14 21:25N 45°06' E 013°38'0 0.0
2017-Jun-14 20:49N 45°06' E 013°38'0 0.0
2017-Jun-14 20:28N 45°06' E 013°38'0 0.0
2017-Jun-14 19:55N 45°06' E 013°38'0 0.0
2017-Jun-14 19:22N 45°06' E 013°38'0 0.0
2017-Jun-14 18:34N 45°06' E 013°38'0 0.0
2017-Jun-14 18:25N 45°06' E 013°38'0 0.0
2017-Jun-14 17:58N 45°06' E 013°38'0 0.0
2017-Jun-14 17:28N 45°06' E 013°38'0 0.0
2017-Jun-14 16:50N 45°06' E 013°38'1 1.9
2017-Jun-14 16:22N 45°05' E 013°38'0 0.1
2017-Jun-14 15:55N 45°05' E 013°38'0 0.0
2017-Jun-14 15:28N 45°05' E 013°38'0 0.1
2017-Jun-14 15:00N 45°05' E 013°38'1010.5
2017-Jun-14 14:00N 45°08' E 013°24'612.7
2017-Jun-14 13:31N 45°10' E 013°16'612.4
2017-Jun-14 13:00N 45°13' E 013°07'612.4
2017-Jun-14 12:30N 45°15' E 012°59'3 6.7
2017-Jun-14 12:00N 45°16' E 012°55'510.7
2017-Jun-14 11:30N 45°18' E 012°48'611.0
2017-Jun-14 11:00N 45°20' E 012°40'612.1
2017-Jun-14 10:30N 45°23' E 012°32'611.5
2017-Jun-14 10:00N 45°25' E 012°25'3 5.1
2017-Jun-14 09:30N 45°25' E 012°22'2 0.1
2017-Jun-13 16:49N 45°26' E 012°19'0 0.0
2017-Jun-13 16:25N 45°26' E 012°19'0 0.0
2017-Jun-13 15:58N 45°26' E 012°19'0 0.0
2017-Jun-13 15:28N 45°26' E 012°19'0 0.0
2017-Jun-13 14:58N 45°26' E 012°19'0 0.0
2017-Jun-13 13:55N 45°26' E 012°19'0 0.0
2017-Jun-13 13:28N 45°26' E 012°19'0 0.0
2017-Jun-12 10:43N 45°26' E 012°19'0 0.0
2017-Jun-12 10:28N 45°26' E 012°19'0 0.0
2017-Jun-12 09:58N 45°26' E 012°19'0 0.0
2017-Jun-12 09:28N 45°26' E 012°19'0 0.0
2017-Jun-12 08:55N 45°26' E 012°19'0 0.0
2017-Jun-12 08:28N 45°26' E 012°19'0 0.0
2017-Jun-12 07:58N 45°26' E 012°19'0 0.0
2017-Jun-11 13:19N 45°26' E 012°19'0 0.0
2017-Jun-11 12:58N 45°26' E 012°19'0 0.0
2017-Jun-11 12:28N 45°26' E 012°19'0 0.0
2017-Jun-11 11:58N 45°26' E 012°19'0 0.0
2017-Jun-11 11:28N 45°26' E 012°19'0 0.0
2017-Jun-11 10:58N 45°26' E 012°19'0 0.0
2017-Jun-11 10:28N 45°26' E 012°19'0 0.0
2017-Jun-11 09:58N 45°26' E 012°19'0 0.0
2017-Jun-11 09:25N 45°26' E 012°19'0 0.0
2017-Jun-11 08:58N 45°26' E 012°19'0 0.0
2017-Jun-11 08:28N 45°26' E 012°19'0 0.0
2017-Jun-11 07:58N 45°26' E 012°19'0 0.0
2017-Jun-11 07:25N 45°26' E 012°19'0 0.0
2017-Jun-11 06:58N 45°26' E 012°19'0 0.0
2017-Jun-11 06:25N 45°26' E 012°19'0 0.0
2017-Jun-11 05:58N 45°26' E 012°19'0 0.0
2017-Jun-11 05:28N 45°26' E 012°19'0 0.0
2017-Jun-11 04:58N 45°26' E 012°19'0 0.0
2017-Jun-11 04:28N 45°26' E 012°19'0 0.0
2017-Jun-11 03:58N 45°26' E 012°19'0 0.0
2017-Jun-11 03:28N 45°26' E 012°19'0 0.0
2017-Jun-11 02:58N 45°26' E 012°19'0 0.0
2017-Jun-11 02:28N 45°26' E 012°19'0 0.0
2017-Jun-11 01:58N 45°26' E 012°19'0 0.0
2017-Jun-11 01:28N 45°26' E 012°19'0 0.0
2017-Jun-11 00:58N 45°26' E 012°19'0 0.0
2017-Jun-11 00:28N 45°26' E 012°19'0 0.0
2017-Jun-10 23:58N 45°26' E 012°19'0 0.0
2017-Jun-10 23:28N 45°26' E 012°19'0 0.0
2017-Jun-10 22:58N 45°26' E 012°19'0 0.0
2017-Jun-10 22:28N 45°26' E 012°19'0 0.0
2017-Jun-10 21:58N 45°26' E 012°19'0 0.0
2017-Jun-10 21:28N 45°26' E 012°19'0 0.0
2017-Jun-10 20:58N 45°26' E 012°19'0 0.0
2017-Jun-10 20:28N 45°26' E 012°19'0 0.0
2017-Jun-10 19:58N 45°26' E 012°19'0 0.0
2017-Jun-10 19:28N 45°26' E 012°19'0 0.0
2017-Jun-10 18:58N 45°26' E 012°19'0 0.0
2017-Jun-10 18:28N 45°26' E 012°19'0 0.0
2017-Jun-10 17:58N 45°26' E 012°19'0 0.0
2017-Jun-10 17:28N 45°26' E 012°19'0 0.0
2017-Jun-10 16:58N 45°26' E 012°19'0 0.0
2017-Jun-10 16:28N 45°26' E 012°19'0 0.0
2017-Jun-10 15:55N 45°26' E 012°19'0 0.0
2017-Jun-10 15:28N 45°26' E 012°19'0 0.0
2017-Jun-10 14:52N 45°26' E 012°19'  
Track history (hours):
 
Tides and Currents Weather Stations Pressure Air Temp Water Temp Dewpoint Dewpoint Depression Visibility Wind Speed Wind Dir Waves Ship Positions

Big D

Last reported at 2017-Jun-20 14:33 UTC. Time now 2017-Jun-28 17:33 UTC.
Position N 43°10' E 016°26'.
Warning: this ship's position is 8 days out of date.

Length 45 m; draft 2.6 m.

Type: Pleasure craft. MMSI: 236052000.

Date/timePositionNaut miles runAvg speedWind from/ knotsBaromVisibWave heightAir tempDewpointWater temp
2017-Jun-20 14:33N 43°10' E 016°26'0 0.3
2017-Jun-20 14:21N 43°10' E 016°26'  
2017-Jun-16 22:20N 44°31' E 014°12'310.8
2017-Jun-16 22:01N 44°33' E 014°08'611.6
2017-Jun-16 21:31N 44°37' E 014°02'611.6
2017-Jun-16 21:00N 44°41' E 013°56'611.7
2017-Jun-16 20:31N 44°45' E 013°51'611.9
2017-Jun-16 20:00N 44°51' E 013°47'4 7.3
2017-Jun-16 19:23N 44°55' E 013°46'0 0.0
2017-Jun-16 17:58N 44°55' E 013°46'5 0.7
2017-Jun-16 10:33N 44°59' E 013°41'010.6
2017-Jun-16 10:30N 44°59' E 013°41'5 9.9
2017-Jun-16 10:00N 45°03' E 013°37'2 0.2
2017-Jun-16 01:08N 45°05' E 013°38'0 0.0
2017-Jun-15 23:29N 45°05' E 013°38'0 0.0
2017-Jun-15 22:08N 45°05' E 013°38'0 0.0
2017-Jun-15 21:41N 45°05' E 013°38'0 0.0
2017-Jun-15 16:49N 45°05' E 013°38'1 0.2
2017-Jun-15 12:40N 45°06' E 013°38'0 0.0
2017-Jun-15 12:28N 45°06' E 013°38'0 0.0
2017-Jun-15 09:16N 45°06' E 013°38'0 0.0
2017-Jun-15 08:01N 45°06' E 013°38'0 0.0
2017-Jun-15 07:52N 45°06' E 013°38'0 0.0
2017-Jun-15 07:28N 45°06' E 013°38'0 0.0
2017-Jun-15 06:40N 45°06' E 013°38'0 0.0
2017-Jun-15 06:28N 45°06' E 013°38'0 0.0
2017-Jun-15 05:58N 45°06' E 013°38'0 0.0
2017-Jun-15 05:25N 45°06' E 013°38'0 0.0
2017-Jun-15 04:43N 45°06' E 013°38'0 0.0
2017-Jun-15 04:16N 45°06' E 013°38'0 0.0
2017-Jun-15 03:55N 45°06' E 013°38'0 0.0
2017-Jun-15 03:10N 45°06' E 013°38'0 0.0
2017-Jun-15 02:55N 45°06' E 013°38'0 0.0
2017-Jun-15 02:28N 45°06' E 013°38'0 0.0
2017-Jun-15 01:58N 45°06' E 013°38'0 0.0
2017-Jun-15 01:28N 45°06' E 013°38'0 0.0
2017-Jun-15 00:52N 45°06' E 013°38'0 0.0
2017-Jun-15 00:28N 45°06' E 013°38'0 0.0
2017-Jun-14 23:49N 45°06' E 013°38'0 0.0
2017-Jun-14 23:25N 45°06' E 013°38'0 0.0
2017-Jun-14 22:55N 45°06' E 013°38'0 0.0
2017-Jun-14 22:28N 45°06' E 013°38'0 0.0
2017-Jun-14 21:58N 45°06' E 013°38'0 0.0
2017-Jun-14 21:25N 45°06' E 013°38'0 0.0
2017-Jun-14 20:49N 45°06' E 013°38'0 0.0
2017-Jun-14 20:28N 45°06' E 013°38'0 0.0
2017-Jun-14 19:55N 45°06' E 013°38'0 0.0
2017-Jun-14 19:22N 45°06' E 013°38'0 0.0
2017-Jun-14 18:34N 45°06' E 013°38'0 0.0
2017-Jun-14 18:25N 45°06' E 013°38'0 0.0
2017-Jun-14 17:58N 45°06' E 013°38'0 0.0
2017-Jun-14 17:28N 45°06' E 013°38'0 0.0
2017-Jun-14 16:50N 45°06' E 013°38'1 1.9
2017-Jun-14 16:22N 45°05' E 013°38'0 0.1
2017-Jun-14 15:55N 45°05' E 013°38'0 0.0
2017-Jun-14 15:28N 45°05' E 013°38'0 0.1
2017-Jun-14 15:00N 45°05' E 013°38'1010.5
2017-Jun-14 14:00N 45°08' E 013°24'612.7
2017-Jun-14 13:31N 45°10' E 013°16'612.4
2017-Jun-14 13:00N 45°13' E 013°07'612.4
2017-Jun-14 12:30N 45°15' E 012°59'3 6.7
2017-Jun-14 12:00N 45°16' E 012°55'510.7
2017-Jun-14 11:30N 45°18' E 012°48'611.0
2017-Jun-14 11:00N 45°20' E 012°40'612.1
2017-Jun-14 10:30N 45°23' E 012°32'611.5
2017-Jun-14 10:00N 45°25' E 012°25'3 5.1
2017-Jun-14 09:30N 45°25' E 012°22'2 0.1
2017-Jun-13 16:49N 45°26' E 012°19'0 0.0
2017-Jun-13 16:25N 45°26' E 012°19'0 0.0
2017-Jun-13 15:58N 45°26' E 012°19'0 0.0
2017-Jun-13 15:28N 45°26' E 012°19'0 0.0
2017-Jun-13 14:58N 45°26' E 012°19'0 0.0
2017-Jun-13 13:55N 45°26' E 012°19'0 0.0
2017-Jun-13 13:28N 45°26' E 012°19'0 0.0
2017-Jun-12 10:43N 45°26' E 012°19'0 0.0
2017-Jun-12 10:28N 45°26' E 012°19'0 0.0
2017-Jun-12 09:58N 45°26' E 012°19'0 0.0
2017-Jun-12 09:28N 45°26' E 012°19'0 0.0
2017-Jun-12 08:55N 45°26' E 012°19'0 0.0
2017-Jun-12 08:28N 45°26' E 012°19'0 0.0
2017-Jun-12 07:58N 45°26' E 012°19'0 0.0
2017-Jun-11 13:19N 45°26' E 012°19'0 0.0
2017-Jun-11 12:58N 45°26' E 012°19'0 0.0
2017-Jun-11 12:28N 45°26' E 012°19'0 0.0
2017-Jun-11 11:58N 45°26' E 012°19'0 0.0
2017-Jun-11 11:28N 45°26' E 012°19'0 0.0
2017-Jun-11 10:58N 45°26' E 012°19'0 0.0
2017-Jun-11 10:28N 45°26' E 012°19'0 0.0
2017-Jun-11 09:58N 45°26' E 012°19'0 0.0
2017-Jun-11 09:25N 45°26' E 012°19'0 0.0
2017-Jun-11 08:58N 45°26' E 012°19'0 0.0
2017-Jun-11 08:28N 45°26' E 012°19'0 0.0
2017-Jun-11 07:58N 45°26' E 012°19'0 0.0
2017-Jun-11 07:25N 45°26' E 012°19'0 0.0
2017-Jun-11 06:58N 45°26' E 012°19'0 0.0
2017-Jun-11 06:25N 45°26' E 012°19'0 0.0
2017-Jun-11 05:58N 45°26' E 012°19'0 0.0
2017-Jun-11 05:28N 45°26' E 012°19'0 0.0
2017-Jun-11 04:58N 45°26' E 012°19'0 0.0
2017-Jun-11 04:28N 45°26' E 012°19'0 0.0
2017-Jun-11 03:58N 45°26' E 012°19'0 0.0
2017-Jun-11 03:28N 45°26' E 012°19'0 0.0
2017-Jun-11 02:58N 45°26' E 012°19'0 0.0
2017-Jun-11 02:28N 45°26' E 012°19'0 0.0
2017-Jun-11 01:58N 45°26' E 012°19'0 0.0
2017-Jun-11 01:28N 45°26' E 012°19'0 0.0
2017-Jun-11 00:58N 45°26' E 012°19'0 0.0
2017-Jun-11 00:28N 45°26' E 012°19'0 0.0
2017-Jun-10 23:58N 45°26' E 012°19'0 0.0
2017-Jun-10 23:28N 45°26' E 012°19'0 0.0
2017-Jun-10 22:58N 45°26' E 012°19'0 0.0
2017-Jun-10 22:28N 45°26' E 012°19'0 0.0
2017-Jun-10 21:58N 45°26' E 012°19'0 0.0
2017-Jun-10 21:28N 45°26' E 012°19'0 0.0
2017-Jun-10 20:58N 45°26' E 012°19'0 0.0
2017-Jun-10 20:28N 45°26' E 012°19'0 0.0
2017-Jun-10 19:58N 45°26' E 012°19'0 0.0
2017-Jun-10 19:28N 45°26' E 012°19'0 0.0
2017-Jun-10 18:58N 45°26' E 012°19'0 0.0
2017-Jun-10 18:28N 45°26' E 012°19'0 0.0
2017-Jun-10 17:58N 45°26' E 012°19'0 0.0
2017-Jun-10 17:28N 45°26' E 012°19'0 0.0
2017-Jun-10 16:58N 45°26' E 012°19'0 0.0
2017-Jun-10 16:28N 45°26' E 012°19'0 0.0
2017-Jun-10 15:55N 45°26' E 012°19'0 0.0
2017-Jun-10 15:28N 45°26' E 012°19'0 0.0
2017-Jun-10 14:52N 45°26' E 012°19'  

Dump ship's entire track history